Time;durP1;ratioP1;P1;durP2;ratioP2;P2;SDS_P1;SDS_P2;PMS_P1;PMS_P2;Temp;Humidity;BMP_temperature;BMP_pressure;BME280_temperature;BME280_humidity;BME280_pressure;Samples;Min_cycle;Max_cycle;Signal;HPM_P1;HPM_P2
2021/03/17 00:00:25;;;;;;;5.30;4.10;;;;;;;;;;5107662;28;20592;-42
2021/03/17 00:02:50;;;;;;;4.40;3.50;;;;;;;;;;5108714;28;20178;-42
2021/03/17 00:05:17;;;;;;;3.20;2.90;;;;;;;;;;5104422;28;20232;-42
2021/03/17 00:07:42;;;;;;;5.00;3.53;;;;;;;;;;5104034;28;20254;-42
2021/03/17 00:10:08;;;;;;;4.97;3.70;;;;;;;;;;5108398;28;21117;-42
2021/03/17 00:12:33;;;;;;;5.23;3.60;;;;;;;;;;5108482;28;20170;-43
2021/03/17 00:14:58;;;;;;;4.23;3.83;;;;;;;;;;5108075;28;20568;-42
2021/03/17 00:17:23;;;;;;;5.18;3.58;;;;;;;;;;5108274;28;20182;-43
2021/03/17 00:19:49;;;;;;;7.40;3.57;;;;;;;;;;5108225;28;20200;-42
2021/03/17 00:22:14;;;;;;;4.40;4.00;;;;;;;;;;5108127;28;20184;-42
2021/03/17 00:24:39;;;;;;;7.20;3.83;;;;;;;;;;5108046;28;20227;-42
2021/03/17 00:27:05;;;;;;;5.73;3.93;;;;;;;;;;5107492;28;20323;-42
2021/03/17 00:29:30;;;;;;;5.60;4.00;;;;;;;;;;5107139;28;20173;-43
2021/03/17 00:31:55;;;;;;;4.47;4.07;;;;;;;;;;5107803;28;20189;-43
2021/03/17 00:34:20;;;;;;;8.30;4.10;;;;;;;;;;5108559;28;20227;-42
2021/03/17 00:36:46;;;;;;;4.45;3.88;;;;;;;;;;5107505;28;20178;-41
2021/03/17 00:39:11;;;;;;;6.23;4.47;;;;;;;;;;5108038;28;20574;-42
2021/03/17 00:41:36;;;;;;;5.50;4.50;;;;;;;;;;5107974;28;20201;-42
2021/03/17 00:44:01;;;;;;;5.63;3.95;;;;;;;;;;5109559;28;20281;-42
2021/03/17 00:46:26;;;;;;;5.40;4.90;;;;;;;;;;5112018;28;20493;-43
2021/03/17 00:48:51;;;;;;;4.60;4.20;;;;;;;;;;5111822;28;20178;-40
2021/03/17 00:51:17;;;;;;;5.23;4.00;;;;;;;;;;5111452;28;20614;-43
2021/03/17 00:53:42;;;;;;;4.80;3.90;;;;;;;;;;5111185;28;20184;-43
2021/03/17 00:56:07;;;;;;;5.17;4.77;;;;;;;;;;5111668;28;20172;-43
2021/03/17 00:58:32;;;;;;;6.28;5.05;;;;;;;;;;5111105;28;20173;-42
2021/03/17 01:00:57;;;;;;;8.77;5.40;;;;;;;;;;5111647;28;20262;-43
2021/03/17 01:03:23;;;;;;;4.88;4.38;;;;;;;;;;5111823;28;20199;-42
2021/03/17 01:05:48;;;;;;;10.17;5.40;;;;;;;;;;5111609;28;20211;-43
2021/03/17 01:08:14;;;;;;;8.10;5.72;;;;;;;;;;5111443;28;20182;-42
2021/03/17 01:10:41;;;;;;;6.83;5.70;;;;;;;;;;5111992;28;20219;-42
2021/03/17 01:13:07;;;;;;;8.57;5.90;;;;;;;;;;5111309;28;21140;-42
2021/03/17 01:15:32;;;;;;;8.40;5.17;;;;;;;;;;5111483;28;20652;-43
2021/03/17 01:17:57;;;;;;;5.57;4.67;;;;;;;;;;5110946;28;20174;-42
2021/03/17 01:20:26;;;;;;;6.70;6.00;;;;;;;;;;5111567;28;20602;-42
2021/03/17 01:22:52;;;;;;;7.63;6.30;;;;;;;;;;5111519;28;20165;-42
2021/03/17 01:25:20;;;;;;;10.03;7.90;;;;;;;;;;5111080;28;20662;-42
2021/03/17 01:27:45;;;;;;;7.53;6.77;;;;;;;;;;5110661;28;20591;-43
2021/03/17 01:30:11;;;;;;;8.43;6.53;;;;;;;;;;5110872;28;20590;-43
2021/03/17 01:32:36;;;;;;;6.67;5.90;;;;;;;;;;5111451;28;20254;-43
2021/03/17 01:35:04;;;;;;;8.53;7.10;;;;;;;;;;5111281;28;20239;-42
2021/03/17 01:37:29;;;;;;;8.53;7.60;;;;;;;;;;5109856;28;20182;-43
2021/03/17 01:39:55;;;;;;;9.55;6.45;;;;;;;;;;5110906;28;20714;-46
2021/03/17 01:42:20;;;;;;;13.27;6.88;;;;;;;;;;5111003;28;20177;-42
2021/03/17 01:44:45;;;;;;;9.60;5.95;;;;;;;;;;5110154;28;20527;-43
2021/03/17 01:47:10;;;;;;;11.20;7.43;;;;;;;;;;5110006;28;20348;-41
2021/03/17 01:49:35;;;;;;;11.50;8.23;;;;;;;;;;5111120;28;20186;-42
2021/03/17 01:52:01;;;;;;;10.13;7.50;;;;;;;;;;5108458;28;20166;-42
2021/03/17 01:54:26;;;;;;;13.57;7.70;;;;;;;;;;5111179;28;20236;-41
2021/03/17 01:56:51;;;;;;;15.05;9.05;;;;;;;;;;5110546;28;20708;-42
2021/03/17 01:59:16;;;;;;;12.10;8.10;;;;;;;;;;5111584;28;20661;-42
2021/03/17 02:01:41;;;;;;;9.70;7.83;;;;;;;;;;5110748;27;20648;-42
2021/03/17 02:04:06;;;;;;;7.77;6.47;;;;;;;;;;5109707;28;20192;-42
2021/03/17 02:06:32;;;;;;;8.60;6.90;;;;;;;;;;5110209;28;20195;-42
2021/03/17 02:08:57;;;;;;;8.80;7.10;;;;;;;;;;5110207;28;20546;-42
2021/03/17 02:11:22;;;;;;;9.73;7.00;;;;;;;;;;5109919;28;20166;-42
2021/03/17 02:14:06;;;;;;;12.18;7.68;;;;;;;;;;5110208;28;20215;-43
2021/03/17 02:16:34;;;;;;;14.47;9.00;;;;;;;;;;5110362;28;20217;-43
2021/03/17 02:19:14;;;;;;;10.27;7.57;;;;;;;;;;5108189;28;20635;-43
2021/03/17 02:21:58;;;;;;;8.50;7.20;;;;;;;;;;5110069;28;20611;-43
2021/03/17 02:24:26;;;;;;;10.10;7.33;;;;;;;;;;5110374;27;20657;-42
2021/03/17 02:27:03;;;;;;;10.37;8.10;;;;;;;;;;5109311;28;20588;-42
2021/03/17 02:29:34;;;;;;;8.77;7.10;;;;;;;;;;5109942;28;20645;-42
2021/03/17 02:31:59;;;;;;;15.00;8.33;;;;;;;;;;5109905;28;20593;-42
2021/03/17 02:34:26;;;;;;;8.00;7.20;;;;;;;;;;5110151;28;20655;-42
2021/03/17 02:36:54;;;;;;;13.10;8.10;;;;;;;;;;5108234;28;20175;-42
2021/03/17 02:39:24;;;;;;;10.00;6.77;;;;;;;;;;5109410;28;20669;-42
2021/03/17 02:42:10;;;;;;;11.17;7.63;;;;;;;;;;5108932;28;20800;-42
2021/03/17 02:44:57;;;;;;;9.33;7.63;;;;;;;;;;5108512;28;20738;-42
2021/03/17 02:47:23;;;;;;;9.60;6.97;;;;;;;;;;5109756;28;20584;-42
2021/03/17 02:49:49;;;;;;;11.50;7.30;;;;;;;;;;5108790;28;21164;-42
2021/03/17 02:52:16;;;;;;;8.60;7.13;;;;;;;;;;5108538;28;20622;-43
2021/03/17 02:54:42;;;;;;;8.47;6.50;;;;;;;;;;5109272;28;20654;-43
2021/03/17 02:57:14;;;;;;;12.13;8.23;;;;;;;;;;5108385;28;20630;-42
2021/03/17 02:59:40;;;;;;;9.90;8.53;;;;;;;;;;5092447;28;21149;-42
2021/03/17 03:02:06;;;;;;;14.47;9.00;;;;;;;;;;5108811;28;20591;-42
2021/03/17 03:04:32;;;;;;;9.03;8.13;;;;;;;;;;5109633;28;20650;-42
2021/03/17 03:06:58;;;;;;;11.23;7.77;;;;;;;;;;5107949;28;20576;-41
2021/03/17 03:09:25;;;;;;;12.43;7.67;;;;;;;;;;5108761;28;20591;-42
2021/03/17 03:11:52;;;;;;;12.70;7.90;;;;;;;;;;5109623;28;20168;-42
2021/03/17 03:14:18;;;;;;;9.80;7.67;;;;;;;;;;5109377;28;20583;-42
2021/03/17 03:16:43;;;;;;;12.70;8.60;;;;;;;;;;5108530;28;20645;-42
2021/03/17 03:19:08;;;;;;;11.20;7.77;;;;;;;;;;5109106;28;20242;-42
2021/03/17 03:21:34;;;;;;;9.33;7.40;;;;;;;;;;5109339;28;20170;-42
2021/03/17 03:24:00;;;;;;;11.70;9.00;;;;;;;;;;5108959;28;20189;-41
2021/03/17 03:26:25;;;;;;;10.70;8.13;;;;;;;;;;5109109;28;20169;-42
2021/03/17 03:28:51;;;;;;;13.13;8.10;;;;;;;;;;5108454;28;20173;-42
2021/03/17 03:31:17;;;;;;;11.80;9.37;;;;;;;;;;5108546;28;20266;-42
2021/03/17 03:33:43;;;;;;;15.50;9.27;;;;;;;;;;5108630;28;20170;-42
2021/03/17 03:36:08;;;;;;;12.40;9.00;;;;;;;;;;5090484;28;20600;-43
2021/03/17 03:38:33;;;;;;;12.03;8.80;;;;;;;;;;5108134;28;20699;-42
2021/03/17 03:40:58;;;;;;;11.77;9.03;;;;;;;;;;5108495;28;20197;-42
2021/03/17 03:43:23;;;;;;;14.17;10.00;;;;;;;;;;5108726;28;20182;-42
2021/03/17 03:45:49;;;;;;;15.00;9.20;;;;;;;;;;5108447;28;20671;-43
2021/03/17 03:48:14;;;;;;;13.43;8.70;;;;;;;;;;5107927;28;20268;-42
2021/03/17 03:50:43;;;;;;;14.73;9.90;;;;;;;;;;5108758;28;20249;-42
2021/03/17 03:53:11;;;;;;;12.00;8.90;;;;;;;;;;5108315;28;20174;-42
2021/03/17 03:55:41;;;;;;;13.20;9.10;;;;;;;;;;5108412;28;20644;-42
2021/03/17 03:58:07;;;;;;;12.63;9.77;;;;;;;;;;5103080;28;20596;-42
2021/03/17 04:00:33;;;;;;;16.53;9.90;;;;;;;;;;5105576;28;20660;-42
2021/03/17 04:02:59;;;;;;;11.57;8.63;;;;;;;;;;5108249;28;21166;-42
2021/03/17 04:05:25;;;;;;;9.60;8.40;;;;;;;;;;5108551;28;20643;-43
2021/03/17 04:07:52;;;;;;;11.00;8.53;;;;;;;;;;5107574;28;20652;-42
2021/03/17 04:10:19;;;;;;;9.20;8.30;;;;;;;;;;5108189;28;21149;-43
2021/03/17 04:12:45;;;;;;;13.83;8.67;;;;;;;;;;5108504;28;21261;-43
2021/03/17 04:15:11;;;;;;;11.67;9.30;;;;;;;;;;5108588;28;20596;-43
2021/03/17 04:17:39;;;;;;;11.90;8.30;;;;;;;;;;5107896;28;20702;-43
2021/03/17 04:20:06;;;;;;;15.73;8.83;;;;;;;;;;5112329;28;20626;-40
2021/03/17 04:22:31;;;;;;;8.97;7.20;;;;;;;;;;5112387;28;20603;-43
2021/03/17 04:24:58;;;;;;;12.50;8.20;;;;;;;;;;5112330;28;20642;-43
2021/03/17 04:27:24;;;;;;;13.00;8.30;;;;;;;;;;5112103;28;20208;-40
2021/03/17 04:29:51;;;;;;;8.90;8.00;;;;;;;;;;5112041;28;20634;-41
2021/03/17 04:32:17;;;;;;;12.00;8.83;;;;;;;;;;5112187;28;20201;-42
2021/03/17 04:34:43;;;;;;;9.70;8.37;;;;;;;;;;5111775;28;20694;-42
2021/03/17 04:37:09;;;;;;;9.80;8.23;;;;;;;;;;5106066;28;20630;-41
2021/03/17 04:39:36;;;;;;;9.50;7.47;;;;;;;;;;5109135;28;20646;-42
2021/03/17 04:42:01;;;;;;;11.20;9.07;;;;;;;;;;5109048;28;20224;-42
2021/03/17 04:44:26;;;;;;;12.73;9.03;;;;;;;;;;5109467;28;20761;-42
2021/03/17 04:46:52;;;;;;;11.53;8.47;;;;;;;;;;5108931;28;20636;-42
2021/03/17 04:49:21;;;;;;;8.87;7.77;;;;;;;;;;5108233;28;20960;-42
2021/03/17 04:51:47;;;;;;;9.83;8.43;;;;;;;;;;5108584;28;20174;-42
2021/03/17 04:54:13;;;;;;;13.17;9.20;;;;;;;;;;5108246;27;20700;-42
2021/03/17 04:56:40;;;;;;;10.03;7.87;;;;;;;;;;5103538;28;20973;-42
2021/03/17 04:59:06;;;;;;;9.70;8.17;;;;;;;;;;5107313;27;20170;-43
2021/03/17 05:01:32;;;;;;;11.40;8.63;;;;;;;;;;5110155;28;20651;-42
2021/03/17 05:03:58;;;;;;;10.33;8.70;;;;;;;;;;5110627;28;20180;-42
2021/03/17 05:06:24;;;;;;;9.37;8.47;;;;;;;;;;5110206;28;20583;-41
2021/03/17 05:08:49;;;;;;;10.30;8.40;;;;;;;;;;5111565;28;20645;-41
2021/03/17 05:11:16;;;;;;;9.67;8.50;;;;;;;;;;5111311;28;20177;-41
2021/03/17 05:13:41;;;;;;;15.77;10.03;;;;;;;;;;5111557;28;20574;-41
2021/03/17 05:16:07;;;;;;;10.50;8.73;;;;;;;;;;5109969;28;20686;-41
2021/03/17 05:18:32;;;;;;;13.80;10.10;;;;;;;;;;5110335;28;20174;-41
2021/03/17 05:20:58;;;;;;;11.17;9.83;;;;;;;;;;5109549;28;20708;-42
2021/03/17 05:23:23;;;;;;;11.37;9.50;;;;;;;;;;5110139;28;20268;-42
2021/03/17 05:25:49;;;;;;;13.63;10.27;;;;;;;;;;5110508;28;20730;-42
2021/03/17 05:28:15;;;;;;;12.00;9.60;;;;;;;;;;5111467;28;20547;-42
2021/03/17 05:30:42;;;;;;;12.10;10.40;;;;;;;;;;5110345;28;20173;-42
2021/03/17 05:33:08;;;;;;;11.40;8.73;;;;;;;;;;5111084;27;20599;-42
2021/03/17 05:35:33;;;;;;;10.73;9.07;;;;;;;;;;5110378;28;20595;-41
2021/03/17 05:38:00;;;;;;;12.93;9.40;;;;;;;;;;5110114;28;20885;-41
2021/03/17 05:40:25;;;;;;;16.27;9.20;;;;;;;;;;5110016;28;20204;-41
2021/03/17 05:42:50;;;;;;;11.00;9.20;;;;;;;;;;5110475;28;20580;-40
2021/03/17 05:45:20;;;;;;;10.37;8.63;;;;;;;;;;5109546;28;20244;-41
2021/03/17 05:47:46;;;;;;;11.37;8.93;;;;;;;;;;5102559;28;20174;-40
2021/03/17 05:50:12;;;;;;;11.13;9.93;;;;;;;;;;5097231;28;20587;-41
2021/03/17 05:52:38;;;;;;;13.00;8.33;;;;;;;;;;5110615;28;20682;-41
2021/03/17 05:55:04;;;;;;;15.50;11.30;;;;;;;;;;5110509;28;20654;-42
2021/03/17 05:57:30;;;;;;;13.43;9.60;;;;;;;;;;5110565;28;20575;-42
2021/03/17 05:59:55;;;;;;;16.20;10.77;;;;;;;;;;5110993;28;20170;-42
2021/03/17 06:02:21;;;;;;;11.43;9.80;;;;;;;;;;5109587;28;20226;-41
2021/03/17 06:04:47;;;;;;;14.57;9.43;;;;;;;;;;5110068;28;20202;-41
2021/03/17 06:07:21;;;;;;;14.63;10.60;;;;;;;;;;5109428;28;20586;-42
2021/03/17 06:09:47;;;;;;;11.40;9.33;;;;;;;;;;5109876;28;20195;-41
2021/03/17 06:12:13;;;;;;;17.47;11.73;;;;;;;;;;5108032;28;20694;-41
2021/03/17 06:14:40;;;;;;;13.67;10.00;;;;;;;;;;5107214;28;20612;-42
2021/03/17 06:17:09;;;;;;;16.00;9.97;;;;;;;;;;5106558;28;20181;-42
2021/03/17 06:19:36;;;;;;;11.60;9.50;;;;;;;;;;5087045;28;20592;-42
2021/03/17 06:22:01;;;;;;;11.80;9.37;;;;;;;;;;5097187;27;21240;-42
2021/03/17 06:24:26;;;;;;;13.50;10.50;;;;;;;;;;5106880;28;20766;-43
2021/03/17 06:26:52;;;;;;;10.83;9.70;;;;;;;;;;5106582;28;20166;-42
2021/03/17 06:29:17;;;;;;;10.87;9.63;;;;;;;;;;5106358;28;20185;-43
2021/03/17 06:31:43;;;;;;;15.03;10.53;;;;;;;;;;5106160;28;20207;-43
2021/03/17 06:34:08;;;;;;;12.03;9.87;;;;;;;;;;5105930;28;20170;-41
2021/03/17 06:36:46;;;;;;;14.48;10.93;;;;;;;;;;5106316;28;20171;-41
2021/03/17 06:39:11;;;;;;;11.67;9.50;;;;;;;;;;5097378;28;20230;-42
2021/03/17 06:41:47;;;;;;;14.60;9.32;;;;;;;;;;5103544;28;20627;-42
2021/03/17 06:44:12;;;;;;;11.23;8.83;;;;;;;;;;5105285;28;20909;-41
2021/03/17 06:46:37;;;;;;;12.60;9.30;;;;;;;;;;5106627;28;20592;-42
2021/03/17 06:49:04;;;;;;;12.90;9.77;;;;;;;;;;5105573;28;20206;-41
2021/03/17 06:51:29;;;;;;;10.33;8.30;;;;;;;;;;5100009;28;20482;-42
2021/03/17 06:53:56;;;;;;;11.57;8.90;;;;;;;;;;5097278;27;21097;-42
2021/03/17 06:56:34;;;;;;;14.10;9.47;;;;;;;;;;5103291;28;20272;-42
2021/03/17 06:59:00;;;;;;;12.53;8.80;;;;;;;;;;5105089;28;20587;-41
2021/03/17 07:01:34;;;;;;;13.03;10.10;;;;;;;;;;5106407;28;20998;-42
2021/03/17 07:04:00;;;;;;;10.60;8.33;;;;;;;;;;5106093;28;20571;-42
2021/03/17 07:06:26;;;;;;;10.93;9.10;;;;;;;;;;5092389;28;20698;-41
2021/03/17 07:08:51;;;;;;;14.77;9.10;;;;;;;;;;5088778;28;21157;-42
2021/03/17 07:11:20;;;;;;;12.93;9.83;;;;;;;;;;5104075;28;20628;-42
2021/03/17 07:13:51;;;;;;;10.97;8.87;;;;;;;;;;5105107;28;20178;-42
2021/03/17 07:16:26;;;;;;;10.07;8.67;;;;;;;;;;5106099;28;20598;-41
2021/03/17 07:18:52;;;;;;;11.80;9.50;;;;;;;;;;5105377;28;20602;-42
2021/03/17 07:21:27;;;;;;;10.90;8.27;;;;;;;;;;5108264;28;20583;-42
2021/03/17 07:23:53;;;;;;;9.27;8.47;;;;;;;;;;5104394;28;20370;-43
2021/03/17 07:26:18;;;;;;;9.00;8.13;;;;;;;;;;5107805;27;20643;-41
2021/03/17 07:28:46;;;;;;;11.13;8.73;;;;;;;;;;5106739;28;20173;-42
2021/03/17 07:31:12;;;;;;;9.17;8.20;;;;;;;;;;5107994;28;20742;-42
2021/03/17 07:33:37;;;;;;;8.47;7.50;;;;;;;;;;5107847;28;20675;-43
2021/03/17 07:36:03;;;;;;;9.30;8.23;;;;;;;;;;5108378;28;20529;-42
2021/03/17 07:38:28;;;;;;;9.20;8.40;;;;;;;;;;5099955;28;20170;-43
2021/03/17 07:40:54;;;;;;;10.35;8.48;;;;;;;;;;5111484;27;20801;-42
2021/03/17 07:43:19;;;;;;;10.73;8.60;;;;;;;;;;5103965;28;20250;-42
2021/03/17 07:45:44;;;;;;;11.27;7.77;;;;;;;;;;5107999;28;20697;-41
2021/03/17 07:48:10;;;;;;;10.83;9.30;;;;;;;;;;5103665;28;20181;-42
2021/03/17 07:50:37;;;;;;;11.87;8.43;;;;;;;;;;5107141;28;20180;-42
2021/03/17 07:53:06;;;;;;;10.30;9.20;;;;;;;;;;5102814;28;20576;-43
2021/03/17 07:55:33;;;;;;;9.43;8.33;;;;;;;;;;5106500;28;20646;-43
2021/03/17 07:58:00;;;;;;;10.67;9.07;;;;;;;;;;5103149;28;20603;-42
2021/03/17 08:00:25;;;;;;;11.90;9.73;;;;;;;;;;5107616;28;20595;-41
2021/03/17 08:02:51;;;;;;;12.33;10.67;;;;;;;;;;5107850;28;20624;-42
2021/03/17 08:05:16;;;;;;;11.97;9.87;;;;;;;;;;5107902;28;20291;-42
2021/03/17 08:07:41;;;;;;;11.30;9.40;;;;;;;;;;5107856;28;20181;-41
2021/03/17 08:10:07;;;;;;;14.00;10.47;;;;;;;;;;5107264;28;20714;-42
2021/03/17 08:12:33;;;;;;;13.03;10.60;;;;;;;;;;5108311;28;20167;-42
2021/03/17 08:14:59;;;;;;;11.33;9.60;;;;;;;;;;5107641;28;20294;-42
2021/03/17 08:17:35;;;;;;;11.13;10.00;;;;;;;;;;5107688;28;20181;-43
2021/03/17 08:20:12;;;;;;;14.10;11.30;;;;;;;;;;5108005;28;20594;-41
2021/03/17 08:22:38;;;;;;;14.63;10.20;;;;;;;;;;5107763;28;20652;-42
2021/03/17 08:25:03;;;;;;;14.10;10.50;;;;;;;;;;5106267;28;20631;-43
2021/03/17 08:27:28;;;;;;;10.63;9.47;;;;;;;;;;5107951;28;20765;-41
2021/03/17 08:30:04;;;;;;;11.67;10.00;;;;;;;;;;5112783;28;20245;-42
2021/03/17 08:32:48;;;;;;;14.50;10.50;;;;;;;;;;5124287;28;20623;-43
2021/03/17 08:35:13;;;;;;;13.13;10.63;;;;;;;;;;5108100;28;20617;-46
2021/03/17 08:37:51;;;;;;;11.63;10.27;;;;;;;;;;5107821;28;20608;-42
2021/03/17 08:40:28;;;;;;;11.23;10.03;;;;;;;;;;5108315;28;20190;-42
2021/03/17 08:42:53;;;;;;;13.23;10.13;;;;;;;;;;5108098;28;20593;-42
2021/03/17 08:45:19;;;;;;;15.60;11.03;;;;;;;;;;5108010;28;21378;-42
2021/03/17 08:47:46;;;;;;;10.13;9.03;;;;;;;;;;5108180;28;20176;-41
2021/03/17 08:50:17;;;;;;;16.30;11.03;;;;;;;;;;5108210;28;20583;-42
2021/03/17 08:52:44;;;;;;;15.43;12.00;;;;;;;;;;5107888;28;20599;-46
2021/03/17 08:55:13;;;;;;;14.93;12.13;;;;;;;;;;5108098;28;21044;-42
2021/03/17 08:57:48;;;;;;;18.73;16.03;;;;;;;;;;5108019;28;20568;-41
2021/03/17 09:00:13;;;;;;;23.63;17.27;;;;;;;;;;5107710;28;20603;-42
2021/03/17 09:02:38;;;;;;;16.33;14.10;;;;;;;;;;5107122;28;20603;-43
2021/03/17 09:05:05;;;;;;;16.38;13.50;;;;;;;;;;5097982;28;20213;-43
2021/03/17 09:07:31;;;;;;;15.50;13.90;;;;;;;;;;5114939;27;20647;-43
2021/03/17 09:10:06;;;;;;;20.40;14.97;;;;;;;;;;5131891;27;20688;-43
2021/03/17 09:12:34;;;;;;;18.07;12.87;;;;;;;;;;5112563;27;20600;-43
2021/03/17 09:15:25;;;;;;;19.43;16.03;;;;;;;;;;5102822;27;20631;-42
2021/03/17 09:17:54;;;;;;;16.30;12.87;;;;;;;;;;5099546;28;20595;-42
2021/03/17 09:20:29;;;;;;;14.43;12.63;;;;;;;;;;5110789;28;20599;-41
2021/03/17 09:22:57;;;;;;;12.23;11.10;;;;;;;;;;5111405;28;20600;-41
2021/03/17 09:25:24;;;;;;;16.30;12.53;;;;;;;;;;5111476;28;20619;-42
2021/03/17 09:28:09;;;;;;;16.83;11.90;;;;;;;;;;5101279;27;20593;-41
2021/03/17 09:30:40;;;;;;;18.20;13.13;;;;;;;;;;5104036;28;20595;-41
2021/03/17 09:33:09;;;;;;;15.90;12.93;;;;;;;;;;5099944;28;20629;-41
2021/03/17 09:35:35;;;;;;;17.43;11.73;;;;;;;;;;5111112;28;20606;-42
2021/03/17 09:38:01;;;;;;;14.50;11.77;;;;;;;;;;5110090;28;20595;-42
2021/03/17 09:40:31;;;;;;;16.50;11.40;;;;;;;;;;5110718;28;20221;-43
2021/03/17 09:42:56;;;;;;;13.87;11.80;;;;;;;;;;5110000;28;20688;-43
2021/03/17 09:45:23;;;;;;;16.23;12.30;;;;;;;;;;5110861;28;20734;-43
2021/03/17 09:47:54;;;;;;;18.10;12.00;;;;;;;;;;5110477;27;20178;-43
2021/03/17 09:50:19;;;;;;;14.40;11.03;;;;;;;;;;5109159;28;20695;-43
2021/03/17 09:52:44;;;;;;;15.87;12.13;;;;;;;;;;5107851;28;20698;-43
2021/03/17 09:55:25;;;;;;;14.33;12.17;;;;;;;;;;5108124;28;20423;-43
2021/03/17 09:58:02;;;;;;;13.13;11.50;;;;;;;;;;5110327;28;20206;-41
2021/03/17 10:00:27;;;;;;;13.97;12.20;;;;;;;;;;5109152;28;20594;-43
2021/03/17 10:02:55;;;;;;;18.93;12.30;;;;;;;;;;5106807;28;20607;-42
2021/03/17 10:05:20;;;;;;;19.00;13.87;;;;;;;;;;5109744;28;20202;-43
2021/03/17 10:07:45;;;;;;;19.13;13.90;;;;;;;;;;5110000;28;20614;-42
2021/03/17 10:10:11;;;;;;;16.37;14.53;;;;;;;;;;5107621;28;20184;-43
2021/03/17 10:12:36;;;;;;;18.07;12.50;;;;;;;;;;5109947;28;20166;-43
2021/03/17 10:15:06;;;;;;;22.23;12.50;;;;;;;;;;5109930;28;20223;-42
2021/03/17 10:17:32;;;;;;;15.40;11.90;;;;;;;;;;5109391;28;20220;-43
2021/03/17 10:19:58;;;;;;;21.20;15.47;;;;;;;;;;5109030;28;20606;-43
2021/03/17 10:22:24;;;;;;;17.83;13.20;;;;;;;;;;5108499;28;21031;-43
2021/03/17 10:24:54;;;;;;;15.50;12.00;;;;;;;;;;5108595;28;21272;-43
2021/03/17 10:27:41;;;;;;;14.80;12.50;;;;;;;;;;5107010;28;20594;-41
2021/03/17 10:30:17;;;;;;;21.47;13.23;;;;;;;;;;5106239;28;20640;-41
2021/03/17 10:32:42;;;;;;;16.10;12.77;;;;;;;;;;5108740;28;20694;-42
2021/03/17 10:35:13;;;;;;;18.47;15.80;;;;;;;;;;5104048;28;21101;-41
2021/03/17 10:37:39;;;;;;;26.20;20.30;;;;;;;;;;5097102;28;20186;-42
2021/03/17 10:40:06;;;;;;;17.17;12.77;;;;;;;;;;5109655;28;20704;-42
2021/03/17 10:42:31;;;;;;;17.13;13.73;;;;;;;;;;5108557;28;20608;-43
2021/03/17 10:44:59;;;;;;;22.03;14.60;;;;;;;;;;5109580;28;20638;-42
2021/03/17 10:47:25;;;;;;;19.67;17.07;;;;;;;;;;5109167;28;20171;-42
2021/03/17 10:49:50;;;;;;;16.93;15.00;;;;;;;;;;5109501;28;20610;-42
2021/03/17 10:52:15;;;;;;;14.68;12.70;;;;;;;;;;5108266;28;20179;-42
2021/03/17 10:54:41;;;;;;;16.60;13.27;;;;;;;;;;5096870;28;20231;-41
2021/03/17 10:57:07;;;;;;;15.50;13.83;;;;;;;;;;5100844;28;20227;-43
2021/03/17 10:59:36;;;;;;;15.43;13.83;;;;;;;;;;5104398;28;20610;-42
2021/03/17 11:02:14;;;;;;;13.03;11.07;;;;;;;;;;5108613;28;20192;-41
2021/03/17 11:04:59;;;;;;;18.10;14.77;;;;;;;;;;5107314;28;20643;-40
2021/03/17 11:07:24;;;;;;;17.90;14.03;;;;;;;;;;5107811;28;20607;-43
2021/03/17 11:09:51;;;;;;;13.40;11.67;;;;;;;;;;5109182;28;20572;-43
2021/03/17 11:12:16;;;;;;;15.30;13.70;;;;;;;;;;5108257;28;20193;-43
2021/03/17 11:14:41;;;;;;;15.18;13.57;;;;;;;;;;5108284;28;21204;-42
2021/03/17 11:17:07;;;;;;;14.30;12.57;;;;;;;;;;5108130;28;20178;-42
2021/03/17 11:19:32;;;;;;;18.00;16.10;;;;;;;;;;5108769;28;20181;-42
2021/03/17 11:21:57;;;;;;;14.77;13.20;;;;;;;;;;5108097;28;20624;-42
2021/03/17 11:24:23;;;;;;;15.52;11.95;;;;;;;;;;5108248;28;20173;-42
2021/03/17 11:26:49;;;;;;;15.50;13.30;;;;;;;;;;5095884;28;20188;-42
2021/03/17 11:29:14;;;;;;;14.27;12.87;;;;;;;;;;5104900;28;20246;-42
2021/03/17 11:31:39;;;;;;;12.52;11.30;;;;;;;;;;5103706;28;21030;-43
2021/03/17 11:34:10;;;;;;;13.17;10.77;;;;;;;;;;5107448;28;20166;-44
2021/03/17 11:36:35;;;;;;;13.90;12.50;;;;;;;;;;5102503;28;20176;-43
2021/03/17 11:39:03;;;;;;;14.67;12.33;;;;;;;;;;5108096;28;20596;-43
2021/03/17 11:41:28;;;;;;;16.93;12.10;;;;;;;;;;5108421;28;20196;-43
2021/03/17 11:43:54;;;;;;;13.70;11.13;;;;;;;;;;5107932;28;20629;-42
2021/03/17 11:46:19;;;;;;;12.83;11.47;;;;;;;;;;5107448;28;20288;-41
2021/03/17 11:48:45;;;;;;;13.53;11.40;;;;;;;;;;5107752;28;20186;-42
2021/03/17 11:51:11;;;;;;;17.60;12.97;;;;;;;;;;5107129;28;20170;-43
2021/03/17 11:53:36;;;;;;;14.77;11.60;;;;;;;;;;5107899;28;20607;-43
2021/03/17 11:56:02;;;;;;;12.70;11.37;;;;;;;;;;5106979;28;20691;-43
2021/03/17 11:58:27;;;;;;;12.57;11.23;;;;;;;;;;5106129;28;20186;-42
2021/03/17 12:00:52;;;;;;;15.50;12.20;;;;;;;;;;5108379;28;20185;-43
2021/03/17 12:03:17;;;;;;;14.23;12.00;;;;;;;;;;5108817;28;20308;-43
2021/03/17 12:05:43;;;;;;;16.10;13.40;;;;;;;;;;5108847;28;20238;-42
2021/03/17 12:08:09;;;;;;;13.80;12.17;;;;;;;;;;5102550;28;20185;-42
2021/03/17 12:10:35;;;;;;;15.53;12.90;;;;;;;;;;5091936;28;20183;-41
2021/03/17 12:13:00;;;;;;;16.60;14.23;;;;;;;;;;5106603;28;20948;-42
2021/03/17 12:15:27;;;;;;;15.13;12.57;;;;;;;;;;5097247;28;20706;-42
2021/03/17 12:17:52;;;;;;;14.90;10.87;;;;;;;;;;5091526;28;20181;-42
2021/03/17 12:20:18;;;;;;;18.60;13.03;;;;;;;;;;5107366;28;20949;-42
2021/03/17 12:22:44;;;;;;;17.90;12.60;;;;;;;;;;5108156;28;20178;-42
2021/03/17 12:25:10;;;;;;;15.60;12.33;;;;;;;;;;5107921;28;20673;-42
2021/03/17 12:27:36;;;;;;;15.33;12.67;;;;;;;;;;5108150;28;20663;-42
2021/03/17 12:30:02;;;;;;;19.07;13.33;;;;;;;;;;5106684;28;20599;-42
2021/03/17 12:32:27;;;;;;;13.50;11.73;;;;;;;;;;5107394;28;20178;-42
2021/03/17 12:34:52;;;;;;;19.33;14.20;;;;;;;;;;5108612;28;20624;-42
2021/03/17 12:37:18;;;;;;;23.07;14.03;;;;;;;;;;5106323;28;20264;-42
2021/03/17 12:39:43;;;;;;;16.30;13.80;;;;;;;;;;5109123;28;20551;-42
2021/03/17 12:42:09;;;;;;;23.75;17.17;;;;;;;;;;5102288;28;20186;-42
2021/03/17 12:44:35;;;;;;;27.53;20.97;;;;;;;;;;5105948;28;20195;-42
2021/03/17 12:47:00;;;;;;;25.63;19.30;;;;;;;;;;5109268;28;20624;-43
2021/03/17 12:49:26;;;;;;;21.43;16.47;;;;;;;;;;5112069;28;20174;-43
2021/03/17 12:51:51;;;;;;;21.67;14.93;;;;;;;;;;5109018;27;20198;-43
2021/03/17 12:54:16;;;;;;;23.40;15.83;;;;;;;;;;5110095;28;20234;-41
2021/03/17 12:56:42;;;;;;;18.90;14.97;;;;;;;;;;5112173;28;20169;-42
2021/03/17 12:59:07;;;;;;;18.73;14.47;;;;;;;;;;5112129;28;20169;-42
2021/03/17 13:01:32;;;;;;;16.58;13.35;;;;;;;;;;5109759;28;20174;-42
2021/03/17 13:03:57;;;;;;;21.67;15.90;;;;;;;;;;5107166;27;20165;-42
2021/03/17 13:06:22;;;;;;;18.73;15.27;;;;;;;;;;5113987;27;20890;-41
2021/03/17 13:08:48;;;;;;;19.87;13.40;;;;;;;;;;5110463;27;20821;-42
2021/03/17 13:11:13;;;;;;;22.60;15.07;;;;;;;;;;5108565;28;20238;-40
2021/03/17 13:13:39;;;;;;;17.13;12.77;;;;;;;;;;5110761;28;20184;-42
2021/03/17 13:16:04;;;;;;;20.27;13.10;;;;;;;;;;5114374;27;20343;-42
2021/03/17 13:18:29;;;;;;;23.80;17.60;;;;;;;;;;5109554;28;20192;-41
2021/03/17 13:20:54;;;;;;;23.37;17.30;;;;;;;;;;5110639;28;20187;-42
2021/03/17 13:23:19;;;;;;;19.83;15.43;;;;;;;;;;5110312;28;20713;-42
2021/03/17 13:25:45;;;;;;;21.63;15.23;;;;;;;;;;5110425;28;20193;-43
2021/03/17 13:28:11;;;;;;;23.30;14.63;;;;;;;;;;5109520;27;20652;-43
2021/03/17 13:30:36;;;;;;;20.90;14.63;;;;;;;;;;5111172;27;20178;-43
2021/03/17 13:33:01;;;;;;;21.87;15.23;;;;;;;;;;5106720;27;20600;-43
2021/03/17 13:35:26;;;;;;;22.63;15.33;;;;;;;;;;5110669;28;20178;-42
2021/03/17 13:37:52;;;;;;;18.00;13.80;;;;;;;;;;5110607;28;20170;-42
2021/03/17 13:40:18;;;;;;;18.33;13.80;;;;;;;;;;5110277;28;20292;-42
2021/03/17 13:42:43;;;;;;;18.80;14.93;;;;;;;;;;5110640;27;20177;-42
2021/03/17 13:45:09;;;;;;;21.43;14.60;;;;;;;;;;5111102;28;20727;-43
2021/03/17 13:47:35;;;;;;;13.50;9.50;;;;;;;;;;5110796;28;20255;-42
2021/03/17 13:50:00;;;;;;;13.57;10.87;;;;;;;;;;5109049;27;20600;-42
2021/03/17 13:52:26;;;;;;;12.03;9.80;;;;;;;;;;5110759;27;20254;-42
2021/03/17 13:54:51;;;;;;;11.23;9.30;;;;;;;;;;5104280;28;20222;-43
2021/03/17 13:57:16;;;;;;;13.90;9.20;;;;;;;;;;5107813;28;20265;-43
2021/03/17 13:59:41;;;;;;;9.50;8.53;;;;;;;;;;5107612;28;20666;-41
2021/03/17 14:02:08;;;;;;;8.90;8.00;;;;;;;;;;5108373;28;20208;-42
2021/03/17 14:04:33;;;;;;;9.40;7.90;;;;;;;;;;5110275;28;20190;-48
2021/03/17 14:06:58;;;;;;;13.83;7.93;;;;;;;;;;5109400;28;21209;-42
2021/03/17 14:09:23;;;;;;;8.48;7.50;;;;;;;;;;5110341;28;20178;-43
2021/03/17 14:11:48;;;;;;;9.27;8.38;;;;;;;;;;5108084;28;20166;-42
2021/03/17 14:14:14;;;;;;;9.02;8.10;;;;;;;;;;5108311;28;20170;-42
2021/03/17 14:16:39;;;;;;;12.40;8.87;;;;;;;;;;5099139;28;20185;-42
2021/03/17 14:19:09;;;;;;;10.87;9.77;;;;;;;;;;5108869;28;20176;-43
2021/03/17 14:21:34;;;;;;;13.10;9.87;;;;;;;;;;5110185;28;20258;-43
2021/03/17 14:23:59;;;;;;;10.30;9.30;;;;;;;;;;5106424;28;20998;-42
2021/03/17 14:26:24;;;;;;;11.60;10.43;;;;;;;;;;5109041;27;20215;-43